Time;durP1;ratioP1;P1;durP2;ratioP2;P2;SDS_P1;SDS_P2;PMS_P1;PMS_P2;Temp;Humidity;BMP_temperature;BMP_pressure;BME280_temperature;BME280_humidity;BME280_pressure;Samples;Min_cycle;Max_cycle;Signal;HPM_P1;HPM_P2
2024/01/07 00:00:11;;;;;;;5.20;4.80;;;15.80;69.20;16.60;100657.00;;;;5066522;28;20205;-45
2024/01/07 00:02:37;;;;;;;4.93;4.53;;;15.80;69.20;16.60;100652.00;;;;5067527;28;20227;-44
2024/01/07 00:05:03;;;;;;;4.80;4.50;;;15.80;69.20;16.60;100664.00;;;;5065701;28;20229;-44
2024/01/07 00:07:29;;;;;;;4.97;4.57;;;15.80;69.20;16.60;100657.00;;;;5066358;28;20576;-45
2024/01/07 00:09:54;;;;;;;5.03;4.63;;;15.80;69.30;16.60;100656.00;;;;5064641;28;20179;-44
2024/01/07 00:12:20;;;;;;;4.80;4.50;;;15.80;69.40;16.60;100663.00;;;;5067252;28;20170;-45
2024/01/07 00:14:46;;;;;;;5.10;4.70;;;15.80;69.40;16.60;100673.00;;;;5066665;28;20241;-44
2024/01/07 00:17:11;;;;;;;5.13;4.73;;;15.80;69.40;16.50;100673.00;;;;5067759;28;20285;-44
2024/01/07 00:19:38;;;;;;;4.97;4.47;;;15.70;69.40;16.50;100664.00;;;;5068646;28;20836;-44
2024/01/07 00:22:04;;;;;;;4.50;4.20;;;15.70;69.40;16.50;100669.00;;;;5062059;28;20201;-45
2024/01/07 00:24:29;;;;;;;4.70;4.40;;;15.70;69.50;16.50;100670.00;;;;5068019;28;20224;-45
2024/01/07 00:26:55;;;;;;;4.57;4.27;;;15.70;69.60;16.50;100671.00;;;;5068953;28;20182;-43
2024/01/07 00:29:21;;;;;;;4.70;4.40;;;15.60;69.50;16.50;100672.00;;;;5068196;28;20244;-45
2024/01/07 00:31:47;;;;;;;4.90;4.50;;;15.60;69.60;16.40;100670.00;;;;5066840;28;20171;-45
2024/01/07 00:34:13;;;;;;;4.33;4.03;;;15.60;69.50;16.40;100685.00;;;;5068149;28;20259;-44
2024/01/07 00:36:38;;;;;;;4.80;4.43;;;15.60;69.50;16.40;100681.00;;;;5068580;28;20278;-45
2024/01/07 00:39:04;;;;;;;4.70;4.30;;;15.60;69.60;16.40;100676.00;;;;5074250;28;20725;-45
2024/01/07 00:41:30;;;;;;;4.60;4.30;;;15.60;69.60;16.40;100681.00;;;;5066099;28;20191;-44
2024/01/07 00:43:56;;;;;;;4.43;4.13;;;15.60;69.70;16.40;100677.00;;;;5067098;28;20219;-45
2024/01/07 00:46:22;;;;;;;4.50;4.20;;;15.60;69.60;16.30;100682.00;;;;5068354;28;20182;-45
2024/01/07 00:48:47;;;;;;;4.23;3.93;;;15.50;69.70;16.30;100671.00;;;;5068227;28;20186;-47
2024/01/07 00:51:13;;;;;;;4.37;4.03;;;15.50;69.70;16.30;100673.00;;;;5068110;28;20172;-44
2024/01/07 00:53:39;;;;;;;4.20;3.90;;;15.50;69.70;16.30;100682.00;;;;5068320;28;20199;-44
2024/01/07 00:56:06;;;;;;;4.13;3.83;;;15.40;69.80;16.30;100683.00;;;;5068493;28;20174;-44
2024/01/07 00:58:31;;;;;;;4.37;4.07;;;15.50;69.90;16.30;100696.00;;;;5068393;28;20182;-44
2024/01/07 01:00:59;;;;;;;4.43;4.13;;;15.50;69.90;16.30;100688.00;;;;5066501;28;20664;-44
2024/01/07 01:03:26;;;;;;;4.57;4.17;;;15.50;69.90;16.20;100690.00;;;;5067412;28;20199;-45
2024/01/07 01:05:52;;;;;;;4.17;3.87;;;15.40;69.80;16.20;100691.00;;;;5067046;28;20202;-45
2024/01/07 01:08:17;;;;;;;4.70;4.30;;;15.40;69.80;16.20;100694.00;;;;5072903;28;20265;-44
2024/01/07 01:10:43;;;;;;;4.20;3.90;;;15.40;69.80;16.20;100693.00;;;;5072906;28;20258;-44
2024/01/07 01:13:09;;;;;;;4.17;3.77;;;15.40;69.90;16.20;100698.00;;;;5067408;28;20206;-44
2024/01/07 01:15:35;;;;;;;4.17;3.87;;;15.40;70.00;16.20;100705.00;;;;5065885;28;20205;-44
2024/01/07 01:18:01;;;;;;;4.00;3.70;;;15.40;70.00;16.20;100707.00;;;;5065947;28;20197;-44
2024/01/07 01:20:26;;;;;;;4.00;3.70;;;15.40;70.00;16.20;100701.00;;;;5067101;28;20690;-45
2024/01/07 01:22:52;;;;;;;3.90;3.60;;;15.30;69.90;16.10;100698.00;;;;5076008;28;20202;-45
2024/01/07 01:25:18;;;;;;;3.83;3.57;;;15.30;70.00;16.10;100705.00;;;;5070869;28;20634;-45
2024/01/07 01:27:44;;;;;;;4.20;3.90;;;15.30;70.00;16.10;100710.00;;;;5070535;28;20170;-45
2024/01/07 01:30:11;;;;;;;3.90;3.60;;;15.30;70.00;16.10;100708.00;;;;5056920;28;20169;-45
2024/01/07 01:32:37;;;;;;;4.00;3.70;;;15.30;70.00;16.10;100718.00;;;;5077134;28;20197;-45
2024/01/07 01:35:04;;;;;;;3.93;3.63;;;15.30;70.00;16.10;100701.00;;;;5070366;28;20623;-45
2024/01/07 01:37:32;;;;;;;4.13;3.83;;;15.30;70.10;16.00;100726.00;;;;5049864;28;20172;-45
2024/01/07 01:39:58;;;;;;;4.07;3.77;;;15.20;70.10;16.00;100718.00;;;;5075000;28;20189;-45
2024/01/07 01:42:25;;;;;;;4.00;3.70;;;15.20;70.20;16.00;100725.00;;;;5070439;28;20171;-45
2024/01/07 01:44:51;;;;;;;3.87;3.60;;;15.20;70.20;16.00;100727.00;;;;5071817;28;20430;-44
2024/01/07 01:47:17;;;;;;;3.63;3.40;;;15.20;70.20;16.00;100732.00;;;;5076547;28;20177;-44
2024/01/07 01:49:42;;;;;;;3.60;3.40;;;15.20;70.10;16.00;100727.00;;;;5049685;28;20181;-44
2024/01/07 01:52:09;;;;;;;3.47;3.23;;;15.20;69.80;16.00;100719.00;;;;5070669;28;20174;-44
2024/01/07 01:54:35;;;;;;;3.87;3.57;;;15.10;69.90;16.00;100726.00;;;;5050029;28;20193;-44
2024/01/07 01:57:01;;;;;;;3.40;3.20;;;15.10;69.90;16.00;100730.00;;;;5070606;28;20177;-45
2024/01/07 01:59:26;;;;;;;3.57;3.27;;;15.10;70.00;16.00;100722.00;;;;5070675;28;20239;-47
2024/01/07 02:01:52;;;;;;;3.63;3.33;;;15.00;70.00;16.00;100727.00;;;;5021802;28;20224;-44
2024/01/07 02:04:18;;;;;;;3.67;3.40;;;15.10;70.40;16.00;100732.00;;;;5050505;28;20597;-45
2024/01/07 02:06:45;;;;;;;4.00;3.70;;;15.00;70.50;16.00;100720.00;;;;5070471;28;20174;-44
2024/01/07 02:09:11;;;;;;;3.97;3.67;;;15.00;70.70;16.00;100724.00;;;;5060854;28;20659;-44
2024/01/07 02:11:37;;;;;;;4.17;3.87;;;15.00;71.50;16.00;100736.00;;;;5070817;28;20197;-44
2024/01/07 02:14:02;;;;;;;3.63;3.33;;;15.00;70.60;16.00;100730.00;;;;5069754;28;20296;-45
2024/01/07 02:16:28;;;;;;;3.40;3.20;;;14.90;70.60;16.00;100742.00;;;;5069818;28;20182;-45
2024/01/07 02:18:54;;;;;;;3.70;3.40;;;14.90;70.70;16.00;100752.00;;;;5068139;28;20630;-45
2024/01/07 02:21:19;;;;;;;3.40;3.20;;;14.90;70.80;16.00;100749.00;;;;5069489;28;20174;-44
2024/01/07 02:23:45;;;;;;;3.80;3.50;;;14.90;70.90;16.00;100746.00;;;;5069309;28;20685;-44
2024/01/07 02:26:11;;;;;;;3.50;3.30;;;14.90;70.80;16.00;100749.00;;;;5069492;28;20169;-45
2024/01/07 02:28:36;;;;;;;3.73;3.43;;;14.80;70.80;16.00;100761.00;;;;5075239;28;20205;-45
2024/01/07 02:31:02;;;;;;;3.53;3.23;;;14.90;70.80;16.00;100755.00;;;;5067369;28;20182;-44
2024/01/07 02:33:29;;;;;;;3.63;3.33;;;14.80;70.80;15.90;100759.00;;;;5068557;28;20194;-44
2024/01/07 02:35:54;;;;;;;3.53;3.23;;;14.80;70.80;15.90;100760.00;;;;5069656;28;20216;-45
2024/01/07 02:38:20;;;;;;;3.40;3.20;;;14.80;70.90;15.90;100762.00;;;;5069583;28;20205;-44
2024/01/07 02:40:46;;;;;;;3.80;3.50;;;14.80;70.90;15.90;100761.00;;;;5068827;28;20181;-44
2024/01/07 02:43:12;;;;;;;3.33;3.10;;;14.80;71.70;15.90;100766.00;;;;5074433;28;20201;-44
2024/01/07 02:45:37;;;;;;;3.70;3.40;;;14.80;71.10;15.90;100752.00;;;;5069162;28;20673;-44
2024/01/07 02:48:03;;;;;;;3.63;3.33;;;14.90;71.20;15.90;100770.00;;;;5037766;28;20234;-44
2024/01/07 02:50:29;;;;;;;4.10;3.80;;;14.90;70.90;15.90;100774.00;;;;5048100;28;20265;-44
2024/01/07 02:52:55;;;;;;;4.20;3.90;;;14.80;70.50;15.90;100768.00;;;;5067570;28;20532;-44
2024/01/07 02:55:21;;;;;;;4.90;4.50;;;14.90;70.10;15.80;100782.00;;;;5069073;28;20262;-45
2024/01/07 02:57:47;;;;;;;5.07;4.57;;;14.90;69.80;15.80;100771.00;;;;5068962;28;20756;-45
2024/01/07 03:00:13;;;;;;;5.23;4.70;;;14.90;69.50;15.80;100785.00;;;;5067569;28;20189;-45
2024/01/07 03:02:39;;;;;;;4.80;4.30;;;14.80;69.60;15.80;100762.00;;;;5069038;28;20202;-44
2024/01/07 03:05:05;;;;;;;6.97;4.60;;;14.80;69.70;15.80;100777.00;;;;5047905;28;20212;-44
2024/01/07 03:07:31;;;;;;;5.10;4.70;;;14.80;70.10;15.80;100784.00;;;;5069178;28;20182;-44
2024/01/07 03:09:56;;;;;;;4.70;4.30;;;14.70;70.00;15.80;100782.00;;;;5055472;28;20293;-44
2024/01/07 03:12:22;;;;;;;4.60;4.20;;;14.70;70.00;15.80;100784.00;;;;5068663;28;20235;-44
2024/01/07 03:14:48;;;;;;;4.60;4.20;;;14.70;70.10;15.80;100794.00;;;;5037041;28;20185;-44
2024/01/07 03:17:15;;;;;;;4.50;4.13;;;14.70;70.20;15.70;100788.00;;;;5068040;28;20177;-44
2024/01/07 03:19:40;;;;;;;4.40;4.10;;;14.70;70.20;15.70;100786.00;;;;5073662;28;20177;-44
2024/01/07 03:22:07;;;;;;;4.37;4.07;;;14.70;70.10;15.70;100788.00;;;;5068496;28;20204;-44
2024/01/07 03:24:33;;;;;;;4.20;3.90;;;14.70;69.90;15.70;100799.00;;;;5074561;28;20205;-45
2024/01/07 03:26:59;;;;;;;4.40;4.00;;;14.70;70.00;15.70;100797.00;;;;5072887;28;20193;-45
2024/01/07 03:29:24;;;;;;;4.50;4.10;;;14.60;70.00;15.70;100798.00;;;;5069949;28;20177;-44
2024/01/07 03:31:51;;;;;;;4.70;4.30;;;14.70;70.10;15.70;100795.00;;;;5066544;28;20653;-49
2024/01/07 03:34:17;;;;;;;4.27;3.97;;;14.60;70.10;15.70;100793.00;;;;5068189;28;20207;-45
2024/01/07 03:36:42;;;;;;;4.70;4.30;;;14.60;70.00;15.70;100797.00;;;;5066488;28;20637;-45
2024/01/07 03:39:08;;;;;;;4.13;3.83;;;14.60;70.00;15.70;100797.00;;;;5068051;28;20650;-45
2024/01/07 03:41:34;;;;;;;3.83;3.53;;;14.60;70.00;15.60;100797.00;;;;5070540;28;20178;-44
2024/01/07 03:43:59;;;;;;;4.20;3.90;;;14.60;69.90;15.60;100810.00;;;;5049431;28;20269;-44
2024/01/07 03:46:25;;;;;;;4.07;3.77;;;14.60;70.00;15.60;100804.00;;;;5068879;28;20189;-45
2024/01/07 03:48:51;;;;;;;4.23;3.83;;;14.60;70.10;15.60;100804.00;;;;5069072;28;20173;-44
2024/01/07 03:51:17;;;;;;;4.13;3.73;;;14.60;70.20;15.60;100806.00;;;;5069085;28;20637;-45
2024/01/07 03:53:42;;;;;;;4.47;4.13;;;14.60;70.20;15.60;100809.00;;;;5068690;28;20204;-45
2024/01/07 03:56:08;;;;;;;4.10;3.80;;;14.50;70.20;15.60;100803.00;;;;5068337;28;20201;-44
2024/01/07 03:58:35;;;;;;;4.00;3.70;;;14.50;70.10;15.60;100813.00;;;;5068077;28;20239;-47
2024/01/07 04:01:01;;;;;;;3.87;3.57;;;14.60;70.20;15.50;100806.00;;;;5070201;28;20557;-45
2024/01/07 04:03:26;;;;;;;4.07;3.77;;;14.50;70.10;15.50;100814.00;;;;5074872;28;20220;-44
2024/01/07 04:05:52;;;;;;;4.00;3.70;;;14.50;70.30;15.50;100818.00;;;;5068683;28;20217;-44
2024/01/07 04:08:18;;;;;;;4.30;3.93;;;14.50;70.30;15.50;100817.00;;;;5068941;28;20678;-44
2024/01/07 04:10:43;;;;;;;4.07;3.77;;;14.50;70.30;15.50;100818.00;;;;5047481;28;20544;-44
2024/01/07 04:13:09;;;;;;;4.00;3.70;;;14.50;70.20;15.50;100819.00;;;;5068932;28;20193;-45
2024/01/07 04:15:35;;;;;;;4.07;3.77;;;14.40;70.20;15.50;100821.00;;;;5068796;28;20564;-44
2024/01/07 04:18:03;;;;;;;4.00;3.70;;;14.40;70.50;15.40;100830.00;;;;5067051;28;20185;-44
2024/01/07 04:20:29;;;;;;;4.17;3.87;;;14.40;70.50;15.40;100829.00;;;;5068683;28;20185;-45
2024/01/07 04:22:55;;;;;;;3.90;3.60;;;14.40;70.40;15.40;100828.00;;;;5066901;28;20816;-45
2024/01/07 04:25:21;;;;;;;4.00;3.70;;;14.40;70.50;15.40;100833.00;;;;5068500;28;20210;-46
2024/01/07 04:27:46;;;;;;;4.00;3.70;;;14.40;70.50;15.40;100839.00;;;;5068435;28;20304;-43
2024/01/07 04:30:12;;;;;;;4.27;3.87;;;14.40;71.10;15.40;100834.00;;;;5066521;28;20173;-45
2024/01/07 04:32:38;;;;;;;3.90;3.60;;;14.40;71.80;15.40;100838.00;;;;5068393;28;20188;-44
2024/01/07 04:35:04;;;;;;;3.90;3.60;;;14.40;71.00;15.40;100839.00;;;;5068411;28;20215;-45
2024/01/07 04:37:30;;;;;;;4.10;3.80;;;14.50;70.60;15.30;100853.00;;;;5068476;28;20775;-45
2024/01/07 04:39:55;;;;;;;4.03;3.73;;;14.50;70.70;15.30;100844.00;;;;5073112;28;20205;-47
2024/01/07 04:42:21;;;;;;;4.47;3.60;;;14.40;70.90;15.30;100843.00;;;;5068532;28;20197;-44
2024/01/07 04:44:47;;;;;;;4.27;3.73;;;14.40;70.80;15.30;100845.00;;;;5068383;28;20202;-44
2024/01/07 04:47:34;;;;;;;4.10;3.80;;;14.40;70.50;15.30;100857.00;;;;5047185;28;20192;-44
2024/01/07 04:49:59;;;;;;;4.70;4.13;;;14.40;70.10;15.30;100857.00;;;;5068273;28;20173;-44
2024/01/07 04:52:25;;;;;;;4.50;4.10;;;14.40;69.90;15.30;100860.00;;;;5048366;28;20185;-45
2024/01/07 04:54:54;;;;;;;4.73;4.20;;;14.40;69.70;15.30;100854.00;;;;5069518;28;20182;-45
2024/01/07 04:57:20;;;;;;;4.50;4.10;;;14.50;69.60;15.30;100853.00;;;;5071750;28;20458;-44
2024/01/07 04:59:47;;;;;;;4.67;4.23;;;14.40;69.40;15.30;100853.00;;;;5067146;28;20182;-45
2024/01/07 05:02:13;;;;;;;5.20;4.80;;;14.40;69.20;15.30;100855.00;;;;5051305;28;20689;-45
2024/01/07 05:04:38;;;;;;;4.80;4.40;;;14.40;69.10;15.30;100858.00;;;;5071772;28;20208;-44
2024/01/07 05:07:04;;;;;;;5.40;4.90;;;14.40;68.80;15.30;100855.00;;;;5071917;28;20182;-44
2024/01/07 05:09:31;;;;;;;5.40;4.90;;;14.40;68.70;15.30;100870.00;;;;5071881;28;20529;-44
2024/01/07 05:11:57;;;;;;;5.20;4.77;;;14.30;68.40;15.20;100874.00;;;;5071735;28;20185;-45
2024/01/07 05:14:23;;;;;;;5.57;4.97;;;14.40;68.30;15.20;100870.00;;;;5071793;28;20254;-44
2024/01/07 05:16:49;;;;;;;5.93;5.33;;;14.40;68.20;15.20;100878.00;;;;5070037;28;20197;-44
2024/01/07 05:19:14;;;;;;;5.63;5.13;;;14.40;68.20;15.20;100874.00;;;;5071017;28;20256;-44
2024/01/07 05:21:40;;;;;;;5.70;5.10;;;14.40;68.00;15.20;100875.00;;;;5071822;28;20256;-44
2024/01/07 05:24:06;;;;;;;5.40;4.90;;;14.40;68.00;15.20;100884.00;;;;5071676;28;20298;-44
2024/01/07 05:26:41;;;;;;;5.77;5.30;;;14.40;68.00;15.20;100885.00;;;;5071771;28;20179;-44
2024/01/07 05:29:07;;;;;;;5.77;5.30;;;14.40;68.00;15.20;100890.00;;;;5065273;28;20166;-45
2024/01/07 05:31:33;;;;;;;6.10;5.60;;;14.30;67.90;15.20;100889.00;;;;5070897;28;20235;-44
2024/01/07 05:33:58;;;;;;;6.53;5.83;;;14.40;67.90;15.20;100901.00;;;;5073565;28;20600;-44
2024/01/07 05:36:24;;;;;;;6.07;5.57;;;14.30;67.80;15.20;100894.00;;;;5050906;28;20216;-44
2024/01/07 05:38:50;;;;;;;6.17;5.57;;;14.30;67.60;15.10;100899.00;;;;5072505;28;20184;-44
2024/01/07 05:41:16;;;;;;;6.97;5.47;;;14.30;67.60;15.10;100904.00;;;;5076187;28;20211;-44
2024/01/07 05:43:41;;;;;;;6.60;6.00;;;14.30;67.50;15.10;100905.00;;;;5072185;28;20685;-46
2024/01/07 05:46:07;;;;;;;6.63;5.37;;;14.20;67.30;15.10;100908.00;;;;5077960;28;20292;-44
2024/01/07 05:48:47;;;;;;;7.40;5.50;;;14.20;67.20;15.10;100903.00;;;;5072422;28;20186;-44
2024/01/07 05:51:13;;;;;;;6.20;5.70;;;14.20;67.20;15.10;100910.00;;;;5036817;28;20180;-44
2024/01/07 05:53:39;;;;;;;6.07;5.57;;;14.20;67.10;15.10;100908.00;;;;5068889;28;20189;-45
2024/01/07 05:56:05;;;;;;;6.00;5.40;;;14.20;67.10;15.10;100908.00;;;;5069888;28;21435;-44
2024/01/07 05:58:31;;;;;;;6.03;5.43;;;14.20;67.10;15.10;100914.00;;;;5070789;28;20177;-45
2024/01/07 06:00:56;;;;;;;6.17;5.30;;;14.10;67.40;15.10;100926.00;;;;5070694;28;20253;-44
2024/01/07 06:03:22;;;;;;;5.60;5.10;;;14.00;67.70;15.00;100919.00;;;;5070905;28;20201;-44
2024/01/07 06:05:48;;;;;;;6.63;5.00;;;14.10;67.90;15.00;100907.00;;;;5064711;28;20273;-44
2024/01/07 06:08:14;;;;;;;5.43;4.93;;;14.00;68.00;15.00;100927.00;;;;5068594;28;20201;-44
2024/01/07 06:10:40;;;;;;;5.57;5.07;;;14.00;68.10;15.00;100927.00;;;;5069715;28;20204;-44
2024/01/07 06:13:06;;;;;;;5.67;5.17;;;14.00;68.00;15.00;100928.00;;;;5069169;28;20205;-45
2024/01/07 06:15:32;;;;;;;4.80;4.40;;;14.00;68.10;15.00;100939.00;;;;5072016;28;20178;-45
2024/01/07 06:17:57;;;;;;;5.10;4.57;;;14.00;68.00;15.00;100945.00;;;;5068543;28;20177;-44
2024/01/07 06:20:23;;;;;;;5.13;4.63;;;13.90;68.10;15.00;100942.00;;;;5051838;28;20177;-44
2024/01/07 06:22:50;;;;;;;5.30;4.80;;;13.90;68.20;15.00;100941.00;;;;5070102;28;21641;-45
2024/01/07 06:25:16;;;;;;;4.63;4.13;;;14.00;68.10;15.00;100950.00;;;;5070441;28;20213;-44
2024/01/07 06:27:41;;;;;;;5.10;4.40;;;14.00;67.80;14.90;100938.00;;;;5069833;28;20527;-45
2024/01/07 06:30:08;;;;;;;4.97;4.47;;;14.00;67.80;14.90;100953.00;;;;5062833;28;20181;-44
2024/01/07 06:32:34;;;;;;;4.83;4.10;;;14.00;68.00;14.90;100954.00;;;;5048964;28;20264;-44
2024/01/07 06:35:00;;;;;;;4.83;4.43;;;14.00;68.00;14.90;100963.00;;;;5069945;28;20177;-44
2024/01/07 06:37:25;;;;;;;4.77;4.37;;;14.00;68.00;14.90;100972.00;;;;5069713;28;20189;-44
2024/01/07 06:39:51;;;;;;;4.90;4.33;;;14.00;67.70;14.90;100971.00;;;;5069864;28;20177;-44
2024/01/07 06:42:18;;;;;;;4.53;3.90;;;14.00;67.70;14.90;100988.00;;;;5070075;28;20174;-44
2024/01/07 06:44:43;;;;;;;4.90;4.27;;;14.00;67.80;14.90;100988.00;;;;5069741;28;20212;-44
2024/01/07 06:47:09;;;;;;;4.30;3.90;;;14.00;67.80;14.90;100997.00;;;;5069264;28;20185;-44
2024/01/07 06:49:35;;;;;;;4.23;3.93;;;14.00;67.80;14.90;100986.00;;;;5075619;28;20173;-44
2024/01/07 06:52:01;;;;;;;4.30;4.00;;;14.00;67.80;14.90;101001.00;;;;5068683;28;20677;-45
2024/01/07 06:54:26;;;;;;;4.60;4.20;;;13.90;67.90;14.90;101003.00;;;;5069783;28;20686;-44
2024/01/07 06:56:52;;;;;;;4.53;4.13;;;13.90;68.10;14.90;101003.00;;;;5069398;28;20186;-44
2024/01/07 06:59:18;;;;;;;3.93;3.63;;;13.90;68.00;14.90;101000.00;;;;5073349;28;20177;-44
2024/01/07 07:01:44;;;;;;;4.20;3.80;;;13.90;68.10;14.90;100996.00;;;;5069341;28;20180;-44
2024/01/07 07:04:09;;;;;;;4.37;4.00;;;13.90;68.10;14.90;100995.00;;;;5048278;28;20208;-45
2024/01/07 07:06:35;;;;;;;4.13;3.77;;;13.90;68.20;14.90;101021.00;;;;5070144;28;20169;-45
2024/01/07 07:09:01;;;;;;;4.13;3.73;;;13.80;68.10;14.80;101010.00;;;;5038376;28;20609;-45
2024/01/07 07:11:27;;;;;;;3.93;3.63;;;13.80;68.10;14.80;101007.00;;;;5068277;28;20169;-45
2024/01/07 07:13:52;;;;;;;3.80;3.50;;;13.80;68.10;14.80;101022.00;;;;5069007;28;20286;-45
2024/01/07 07:16:18;;;;;;;4.00;3.70;;;13.80;68.10;14.80;101028.00;;;;5068969;28;20173;-45
2024/01/07 07:18:44;;;;;;;3.80;3.50;;;13.80;68.10;14.80;101030.00;;;;5066524;28;20170;-44
2024/01/07 07:21:09;;;;;;;3.80;3.50;;;13.80;68.10;14.80;101034.00;;;;5069212;28;20173;-45
2024/01/07 07:23:35;;;;;;;4.17;3.77;;;13.80;68.10;14.80;101026.00;;;;5070153;28;20217;-44
2024/01/07 07:26:01;;;;;;;3.90;3.37;;;13.80;68.10;14.80;101043.00;;;;5073524;28;20244;-45
2024/01/07 07:28:27;;;;;;;4.00;3.70;;;13.80;68.20;14.80;101041.00;;;;5071398;28;20174;-44
2024/01/07 07:30:53;;;;;;;3.90;3.60;;;13.70;68.30;14.80;101045.00;;;;5066247;28;20178;-44
2024/01/07 07:33:18;;;;;;;3.93;3.60;;;13.70;68.50;14.80;101050.00;;;;5070087;28;20677;-44
2024/01/07 07:35:44;;;;;;;3.90;3.30;;;13.70;69.00;14.80;101054.00;;;;5069798;28;20307;-44
2024/01/07 07:38:10;;;;;;;3.70;3.40;;;13.70;69.10;14.70;101052.00;;;;5070911;28;20178;-44
2024/01/07 07:40:36;;;;;;;3.73;3.43;;;13.60;68.70;14.70;101050.00;;;;5056193;28;20177;-44
2024/01/07 07:43:02;;;;;;;3.80;3.50;;;13.70;68.80;14.70;101054.00;;;;5068874;28;20212;-44
2024/01/07 07:45:28;;;;;;;4.40;3.57;;;13.70;68.70;14.70;101060.00;;;;5068471;28;20681;-44
2024/01/07 07:47:53;;;;;;;3.93;3.63;;;13.80;68.90;14.70;101057.00;;;;5068274;28;20216;-44
2024/01/07 07:50:19;;;;;;;3.90;3.60;;;13.90;69.20;14.70;101059.00;;;;5068505;28;20181;-44
2024/01/07 07:52:45;;;;;;;3.90;3.40;;;14.00;69.20;14.80;101069.00;;;;5068498;28;20198;-44
2024/01/07 07:55:11;;;;;;;3.73;3.27;;;14.10;69.10;14.80;101065.00;;;;5068704;28;20174;-44
2024/01/07 07:57:37;;;;;;;4.70;3.63;;;14.10;69.00;14.90;101074.00;;;;5068140;28;20180;-45
2024/01/07 08:00:07;;;;;;;3.83;3.30;;;14.20;68.80;14.90;101082.00;;;;5068102;28;20201;-44
2024/01/07 08:02:33;;;;;;;3.50;3.20;;;14.30;68.70;15.00;101084.00;;;;5068528;28;20931;-44
2024/01/07 08:04:58;;;;;;;3.53;3.07;;;14.50;68.70;15.10;101089.00;;;;5053215;28;20206;-44
2024/01/07 08:07:25;;;;;;;3.70;3.30;;;14.60;68.50;15.20;101088.00;;;;5068236;28;20174;-44
2024/01/07 08:09:51;;;;;;;5.53;3.20;;;14.70;68.20;15.30;101091.00;;;;5067283;28;20177;-44
2024/01/07 08:12:17;;;;;;;3.67;3.37;;;14.80;68.10;15.40;101090.00;;;;5045853;28;20181;-46
2024/01/07 08:14:42;;;;;;;3.63;3.33;;;15.00;68.10;15.50;101096.00;;;;5053532;28;20205;-44
2024/01/07 08:17:08;;;;;;;4.13;3.13;;;15.20;68.00;15.60;101093.00;;;;5070987;28;20178;-44
2024/01/07 08:19:35;;;;;;;3.50;3.20;;;15.30;68.80;15.70;101085.00;;;;5068319;28;20734;-45
2024/01/07 08:22:01;;;;;;;3.43;3.13;;;15.50;69.60;15.90;101096.00;;;;5060400;28;20263;-44
2024/01/07 08:24:27;;;;;;;4.13;3.40;;;15.60;69.60;16.00;101104.00;;;;5067159;28;20301;-44
2024/01/07 08:26:53;;;;;;;3.60;3.10;;;15.70;69.80;16.10;101115.00;;;;5065125;28;20429;-45
2024/01/07 08:29:18;;;;;;;4.07;3.13;;;15.90;69.70;16.20;101120.00;;;;5052051;28;20180;-44
2024/01/07 08:31:44;;;;;;;3.73;3.10;;;15.90;69.30;16.30;101128.00;;;;5050142;28;20189;-44
2024/01/07 08:34:10;;;;;;;3.20;2.90;;;16.00;69.40;16.40;101129.00;;;;5072100;28;20213;-43
2024/01/07 08:36:36;;;;;;;7.07;3.03;;;16.10;69.90;16.50;101142.00;;;;5072131;28;20182;-44
2024/01/07 08:39:01;;;;;;;5.33;2.83;;;16.20;70.40;16.60;101136.00;;;;5070216;28;20573;-45
2024/01/07 08:41:27;;;;;;;4.03;3.00;;;16.20;69.80;16.70;101143.00;;;;5050486;28;20177;-44
2024/01/07 08:43:53;;;;;;;5.67;3.40;;;16.30;69.60;16.80;101153.00;;;;5053616;28;20198;-45
2024/01/07 08:46:21;;;;;;;4.80;3.00;;;16.30;69.50;16.80;101164.00;;;;5071908;28;20236;-45
2024/01/07 08:48:47;;;;;;;4.53;3.03;;;16.50;69.20;16.90;101159.00;;;;5071504;28;20183;-44
2024/01/07 08:51:13;;;;;;;3.90;3.00;;;16.60;68.80;17.00;101164.00;;;;5071734;28;20251;-45
2024/01/07 08:53:39;;;;;;;4.53;2.93;;;16.70;68.60;17.00;101169.00;;;;5072495;28;20229;-44
2024/01/07 08:56:06;;;;;;;5.57;3.27;;;16.60;68.90;17.10;101169.00;;;;5072187;28;20183;-44
2024/01/07 08:58:32;;;;;;;7.53;3.27;;;16.70;69.30;17.10;101168.00;;;;5072053;28;20266;-45
2024/01/07 09:00:58;;;;;;;9.67;3.90;;;16.70;70.20;17.20;101178.00;;;;5071961;28;20188;-44
2024/01/07 09:03:24;;;;;;;8.10;3.40;;;16.80;70.90;17.20;101168.00;;;;5072175;28;20247;-45
2024/01/07 09:05:49;;;;;;;10.97;3.50;;;16.80;71.30;17.30;101169.00;;;;5071859;28;20208;-44
2024/01/07 09:08:15;;;;;;;7.57;3.30;;;16.80;71.60;17.30;101174.00;;;;5072036;28;20229;-45
2024/01/07 09:10:41;;;;;;;9.70;3.37;;;16.80;71.50;17.40;101188.00;;;;5062035;28;20177;-45
2024/01/07 09:13:06;;;;;;;7.63;3.80;;;16.80;71.40;17.40;101181.00;;;;5056616;28;20192;-45
2024/01/07 09:15:32;;;;;;;6.10;3.03;;;16.80;71.90;17.40;101179.00;;;;5071870;28;20190;-46
2024/01/07 09:17:58;;;;;;;6.60;3.33;;;16.80;71.60;17.40;101191.00;;;;5072105;28;20191;-46
2024/01/07 09:20:24;;;;;;;6.50;3.47;;;16.80;71.30;17.40;101191.00;;;;5072334;28;20189;-45
2024/01/07 09:22:50;;;;;;;8.47;3.43;;;16.90;71.20;17.40;101189.00;;;;5071271;28;20750;-44
2024/01/07 09:25:16;;;;;;;5.67;3.10;;;16.80;70.90;17.40;101195.00;;;;5072180;28;20198;-45
2024/01/07 09:27:42;;;;;;;4.03;3.30;;;16.70;70.90;17.40;101193.00;;;;5071769;28;20180;-44
2024/01/07 09:30:10;;;;;;;6.20;3.10;;;16.70;70.90;17.40;101199.00;;;;5075148;28;20177;-44
2024/01/07 09:32:36;;;;;;;5.43;3.27;;;16.70;70.80;17.30;101197.00;;;;5072303;28;20181;-45
2024/01/07 09:35:02;;;;;;;5.40;3.10;;;16.70;70.70;17.30;101200.00;;;;5072060;28;20578;-46
2024/01/07 09:37:30;;;;;;;4.57;3.00;;;16.60;70.70;17.30;101211.00;;;;5071656;28;20223;-46
2024/01/07 09:39:55;;;;;;;5.47;3.07;;;16.60;70.50;17.30;101214.00;;;;5071276;28;20188;-45
2024/01/07 09:42:21;;;;;;;6.00;3.10;;;16.60;70.50;17.30;101214.00;;;;5071393;28;20653;-45
2024/01/07 09:44:47;;;;;;;4.97;3.07;;;16.60;70.50;17.30;101218.00;;;;5071244;28;20204;-45
2024/01/07 09:47:14;;;;;;;4.80;2.90;;;16.50;70.50;17.20;101223.00;;;;5049687;28;20188;-45
2024/01/07 09:49:40;;;;;;;3.20;2.90;;;16.50;70.50;17.20;101215.00;;;;5071556;28;20181;-45
2024/01/07 09:52:07;;;;;;;4.33;3.03;;;16.40;70.50;17.20;101217.00;;;;5071764;28;20269;-45
2024/01/07 09:54:32;;;;;;;4.50;2.97;;;16.40;70.50;17.20;101231.00;;;;5049467;28;20194;-44
2024/01/07 09:57:03;;;;;;;4.83;3.13;;;16.40;70.50;17.10;101222.00;;;;5018898;28;20217;-44
2024/01/07 09:59:29;;;;;;;3.17;2.87;;;16.40;71.30;17.10;101228.00;;;;5071179;28;20217;-46
2024/01/07 10:01:55;;;;;;;6.60;3.00;;;16.30;70.50;17.10;101234.00;;;;5048981;28;20179;-44
2024/01/07 10:04:21;;;;;;;4.40;3.20;;;16.30;70.40;17.10;101225.00;;;;5048968;28;20684;-45
2024/01/07 10:06:48;;;;;;;3.60;3.00;;;16.20;70.40;17.00;101231.00;;;;5048889;28;20172;-45
2024/01/07 10:09:15;;;;;;;4.33;2.80;;;16.20;70.40;17.00;101234.00;;;;5070713;28;20184;-45
2024/01/07 10:11:41;;;;;;;3.47;3.10;;;16.30;70.40;17.00;101232.00;;;;5071525;28;20181;-45
2024/01/07 10:14:06;;;;;;;3.03;2.77;;;16.30;70.30;17.00;101238.00;;;;5072402;28;20215;-45
2024/01/07 10:16:33;;;;;;;3.63;3.10;;;16.20;70.20;17.00;101231.00;;;;5048579;28;20193;-45
2024/01/07 10:18:58;;;;;;;4.10;2.80;;;16.20;70.20;17.00;101241.00;;;;5069413;28;20182;-45
2024/01/07 10:21:24;;;;;;;4.53;3.10;;;16.30;70.20;17.00;101252.00;;;;5071347;28;20172;-45
2024/01/07 10:23:50;;;;;;;3.87;2.80;;;16.20;69.90;17.00;101252.00;;;;5048845;28;20211;-45
2024/01/07 10:26:16;;;;;;;3.47;3.00;;;16.30;69.90;17.00;101246.00;;;;5049309;28;20204;-45
2024/01/07 10:28:43;;;;;;;3.10;2.80;;;16.20;69.80;17.00;101257.00;;;;5073261;28;20190;-45
2024/01/07 10:31:09;;;;;;;3.67;2.77;;;16.20;70.00;17.00;101268.00;;;;5070831;28;20208;-45
2024/01/07 10:33:34;;;;;;;4.23;2.83;;;16.20;69.90;17.00;101255.00;;;;5049017;28;20688;-44
2024/01/07 10:36:06;;;;;;;3.20;2.90;;;16.30;69.80;17.00;101255.00;;;;5072950;28;20266;-46
2024/01/07 10:38:35;;;;;;;2.80;2.60;;;16.30;69.60;17.00;101264.00;;;;5051536;28;20175;-46
2024/01/07 10:41:01;;;;;;;3.17;2.87;;;16.30;69.60;17.00;101252.00;;;;5039141;28;20640;-45